Time;durP1;ratioP1;P1;durP2;ratioP2;P2;SDS_P1;SDS_P2;PMS_P1;PMS_P2;Temp;Humidity;BMP_temperature;BMP_pressure;BME280_temperature;BME280_humidity;BME280_pressure;Samples;Min_cycle;Max_cycle;Signal;HPM_P1;HPM_P2
2022/08/08 00:00:17;;;;;;;2.47;1.50;;;;;;;;;;5040664;28;20222;-70
2022/08/08 00:02:48;;;;;;;4.23;1.40;;;;;;;;;;5035800;28;20207;-70
2022/08/08 00:05:20;;;;;;;2.43;1.50;;;;;;;;;;5035211;28;20207;-70
2022/08/08 00:07:51;;;;;;;2.37;1.40;;;;;;;;;;5041077;28;20227;-71
2022/08/08 00:10:21;;;;;;;3.40;1.57;;;;;;;;;;5040045;28;20766;-71
2022/08/08 00:12:51;;;;;;;2.27;1.60;;;;;;;;;;5043095;28;20298;-72
2022/08/08 00:15:20;;;;;;;1.73;1.20;;;;;;;;;;5041237;28;20199;-71
2022/08/08 00:17:49;;;;;;;2.33;1.40;;;;;;;;;;5045691;28;20224;-71
2022/08/08 00:20:18;;;;;;;5.30;1.40;;;;;;;;;;5039969;28;20616;-71
2022/08/08 00:22:47;;;;;;;3.10;1.47;;;;;;;;;;5038683;28;20666;-72
2022/08/08 00:25:20;;;;;;;1.80;1.60;;;;;;;;;;5043666;28;20207;-71
2022/08/08 00:27:50;;;;;;;2.17;1.50;;;;;;;;;;5037768;28;20229;-71
2022/08/08 00:30:18;;;;;;;2.07;1.10;;;;;;;;;;5041790;28;20206;-71
2022/08/08 00:32:47;;;;;;;3.30;1.47;;;;;;;;;;5040076;28;20294;-71
2022/08/08 00:35:28;;;;;;;2.80;1.67;;;;;;;;;;5043848;28;20565;-71
2022/08/08 00:38:13;;;;;;;3.13;1.90;;;;;;;;;;5041754;28;20219;-71
2022/08/08 00:41:12;;;;;;;7.10;1.60;;;;;;;;;;5039177;28;20207;-71
2022/08/08 00:44:09;;;;;;;4.80;1.50;;;;;;;;;;5043229;28;20200;-71
2022/08/08 00:46:52;;;;;;;3.73;1.30;;;;;;;;;;5043040;28;20298;-71
2022/08/08 00:49:29;;;;;;;2.37;1.50;;;;;;;;;;5044404;28;20202;-71
2022/08/08 00:52:03;;;;;;;2.13;1.60;;;;;;;;;;5044609;28;20215;-71
2022/08/08 00:54:48;;;;;;;3.90;1.70;;;;;;;;;;5040228;28;20203;-71
2022/08/08 00:57:28;;;;;;;3.33;1.40;;;;;;;;;;5042004;28;20219;-71
2022/08/08 01:00:13;;;;;;;4.87;1.67;;;;;;;;;;5043986;28;20203;-71
2022/08/08 01:03:04;;;;;;;5.17;1.60;;;;;;;;;;5039467;28;20203;-71
2022/08/08 01:05:52;;;;;;;1.90;1.57;;;;;;;;;;5041837;28;20275;-71
2022/08/08 01:08:33;;;;;;;2.53;1.60;;;;;;;;;;5046994;28;20753;-71
2022/08/08 01:11:18;;;;;;;3.00;1.80;;;;;;;;;;5042482;28;20250;-71
2022/08/08 01:13:54;;;;;;;2.27;1.73;;;;;;;;;;5042391;28;20206;-71
2022/08/08 01:16:44;;;;;;;2.10;1.70;;;;;;;;;;5044309;28;20230;-71
2022/08/08 01:19:38;;;;;;;2.60;1.70;;;;;;;;;;5040552;28;20283;-71
2022/08/08 01:22:21;;;;;;;2.97;1.87;;;;;;;;;;5041993;28;20200;-71
2022/08/08 01:25:04;;;;;;;1.97;1.77;;;;;;;;;;5039615;28;20204;-71
2022/08/08 01:27:49;;;;;;;1.87;1.40;;;;;;;;;;5042043;28;20226;-71
2022/08/08 01:30:50;;;;;;;1.93;1.57;;;;;;;;;;5045253;28;20670;-71
2022/08/08 01:33:47;;;;;;;2.87;1.63;;;;;;;;;;5038760;28;20229;-71
2022/08/08 01:36:36;;;;;;;3.47;1.70;;;;;;;;;;4980014;28;20280;-71
2022/08/08 01:39:07;;;;;;;2.47;1.63;;;;;;;;;;5036895;28;20207;-71
2022/08/08 01:41:40;;;;;;;4.23;1.83;;;;;;;;;;5043764;28;20277;-71
2022/08/08 01:44:22;;;;;;;3.70;1.80;;;;;;;;;;5044780;28;20199;-71
2022/08/08 01:46:53;;;;;;;1.83;1.53;;;;;;;;;;5040197;28;20643;-71
2022/08/08 01:49:25;;;;;;;3.43;1.70;;;;;;;;;;5039372;28;20203;-71
2022/08/08 01:51:59;;;;;;;1.90;1.57;;;;;;;;;;5042869;28;21381;-71
2022/08/08 01:54:31;;;;;;;2.27;1.87;;;;;;;;;;5044291;28;20219;-71
2022/08/08 01:57:03;;;;;;;2.30;1.73;;;;;;;;;;5043005;28;20314;-71
2022/08/08 01:59:48;;;;;;;3.13;1.90;;;;;;;;;;5043726;28;20199;-71
2022/08/08 02:02:23;;;;;;;3.37;1.70;;;;;;;;;;5042634;28;20230;-71
2022/08/08 02:04:57;;;;;;;5.37;1.70;;;;;;;;;;5040585;28;20294;-71
2022/08/08 02:07:31;;;;;;;3.23;1.83;;;;;;;;;;5039243;28;20230;-71
2022/08/08 02:10:04;;;;;;;2.03;1.63;;;;;;;;;;5044250;28;20206;-71
2022/08/08 02:12:33;;;;;;;3.53;1.60;;;;;;;;;;5044240;28;20234;-71
2022/08/08 02:15:03;;;;;;;2.47;1.83;;;;;;;;;;5040398;28;20205;-71
2022/08/08 02:17:35;;;;;;;3.30;1.80;;;;;;;;;;5040663;28;20310;-71
2022/08/08 02:20:06;;;;;;;2.03;1.63;;;;;;;;;;5037240;28;20575;-71
2022/08/08 02:22:38;;;;;;;2.10;1.70;;;;;;;;;;5041942;28;20203;-71
2022/08/08 02:25:09;;;;;;;3.60;1.80;;;;;;;;;;5042126;28;20199;-71
2022/08/08 02:27:39;;;;;;;3.73;1.73;;;;;;;;;;5044033;28;20223;-71
2022/08/08 02:30:08;;;;;;;2.40;1.83;;;;;;;;;;5042763;28;20293;-71
2022/08/08 02:32:50;;;;;;;2.73;1.60;;;;;;;;;;5039280;28;20327;-71
2022/08/08 02:35:32;;;;;;;2.20;1.60;;;;;;;;;;5032996;28;20198;-71
2022/08/08 02:38:26;;;;;;;2.60;1.80;;;;;;;;;;5040316;28;20720;-71
2022/08/08 02:41:03;;;;;;;5.50;1.90;;;;;;;;;;5042936;28;20290;-71
2022/08/08 02:43:51;;;;;;;2.43;1.80;;;;;;;;;;5039976;28;20265;-71
2022/08/08 02:46:32;;;;;;;7.30;1.70;;;;;;;;;;5041900;28;20215;-71
2022/08/08 02:49:17;;;;;;;5.13;1.93;;;;;;;;;;5039491;28;20242;-71
2022/08/08 02:51:57;;;;;;;3.93;1.90;;;;;;;;;;5018469;28;20731;-71
2022/08/08 02:54:41;;;;;;;2.90;1.60;;;;;;;;;;5041625;28;20660;-71
2022/08/08 02:57:25;;;;;;;3.43;1.63;;;;;;;;;;5038501;28;20729;-71
2022/08/08 03:00:09;;;;;;;2.70;1.87;;;;;;;;;;5040162;28;20648;-71
2022/08/08 03:02:52;;;;;;;9.43;1.87;;;;;;;;;;5041335;28;20560;-72
2022/08/08 03:05:34;;;;;;;4.87;1.90;;;;;;;;;;5040810;28;20231;-71
2022/08/08 03:08:22;;;;;;;4.20;2.00;;;;;;;;;;5039521;28;20230;-71
2022/08/08 03:11:10;;;;;;;3.50;2.10;;;;;;;;;;5035639;28;20206;-71
2022/08/08 03:13:56;;;;;;;3.93;2.07;;;;;;;;;;5017465;28;20665;-71
2022/08/08 03:16:37;;;;;;;5.10;1.80;;;;;;;;;;5042542;28;20611;-72
2022/08/08 03:19:22;;;;;;;2.47;2.00;;;;;;;;;;5037581;28;20206;-71
2022/08/08 03:21:49;;;;;;;4.93;1.80;;;;;;;;;;5041338;28;20202;-71
2022/08/08 03:24:18;;;;;;;2.10;1.90;;;;;;;;;;5038813;28;20305;-71
2022/08/08 03:26:49;;;;;;;4.93;1.80;;;;;;;;;;5038759;28;20250;-71
2022/08/08 03:29:17;;;;;;;2.47;1.80;;;;;;;;;;5041843;28;20203;-71
2022/08/08 03:34:30;;;;;;;7.83;2.20;;;;;;;;;;5036296;28;20279;-72
2022/08/08 03:36:57;;;;;;;2.03;1.83;;;;;;;;;;5041268;28;20223;-70
2022/08/08 03:39:26;;;;;;;3.03;1.93;;;;;;;;;;5038923;28;20204;-71
2022/08/08 03:41:53;;;;;;;4.00;1.87;;;;;;;;;;5039584;28;20195;-71
2022/08/08 03:44:20;;;;;;;5.63;1.97;;;;;;;;;;5039100;28;20290;-71
2022/08/08 03:46:48;;;;;;;3.47;2.10;;;;;;;;;;5037491;28;20234;-71
2022/08/08 03:49:19;;;;;;;6.73;1.80;;;;;;;;;;5036721;28;20748;-71
2022/08/08 03:51:47;;;;;;;4.03;2.10;;;;;;;;;;5040630;28;20311;-71
2022/08/08 03:54:26;;;;;;;5.80;2.20;;;;;;;;;;5036335;28;20199;-71
2022/08/08 03:56:54;;;;;;;4.50;2.20;;;;;;;;;;5039773;28;20296;-70
2022/08/08 03:59:21;;;;;;;6.30;2.10;;;;;;;;;;5041358;28;20458;-71
2022/08/08 04:01:49;;;;;;;2.57;1.93;;;;;;;;;;5037811;28;20307;-71
2022/08/08 04:04:19;;;;;;;5.03;2.10;;;;;;;;;;5039517;28;20226;-71
2022/08/08 04:06:55;;;;;;;3.90;2.17;;;;;;;;;;5031504;28;20702;-71
2022/08/08 04:09:22;;;;;;;2.50;2.20;;;;;;;;;;5043271;28;20576;-71
2022/08/08 04:11:50;;;;;;;4.90;2.20;;;;;;;;;;5044127;28;20227;-71
2022/08/08 04:14:18;;;;;;;3.63;2.27;;;;;;;;;;5044813;28;20665;-71
2022/08/08 04:16:45;;;;;;;6.03;2.30;;;;;;;;;;5042420;28;20218;-71
2022/08/08 04:19:12;;;;;;;2.60;2.07;;;;;;;;;;5046241;28;20232;-71
2022/08/08 04:21:40;;;;;;;6.80;2.40;;;;;;;;;;5042576;28;20209;-71
2022/08/08 04:24:07;;;;;;;7.70;2.27;;;;;;;;;;5042835;28;20207;-71
2022/08/08 04:26:34;;;;;;;4.37;2.07;;;;;;;;;;5044211;28;20224;-71
2022/08/08 04:29:01;;;;;;;5.80;2.07;;;;;;;;;;5042995;28;20203;-71
2022/08/08 04:31:30;;;;;;;3.37;1.70;;;;;;;;;;5043818;28;20211;-71
2022/08/08 04:33:57;;;;;;;3.27;1.90;;;;;;;;;;5044643;28;20233;-72
2022/08/08 04:36:25;;;;;;;3.03;1.63;;;;;;;;;;5044597;28;20223;-71
2022/08/08 04:38:52;;;;;;;2.47;1.47;;;;;;;;;;5042752;28;20657;-71
2022/08/08 04:41:20;;;;;;;5.10;1.47;;;;;;;;;;5043156;28;20202;-72
2022/08/08 04:43:49;;;;;;;2.23;1.40;;;;;;;;;;5040394;28;20776;-72
2022/08/08 04:46:16;;;;;;;2.63;1.60;;;;;;;;;;5048279;28;20219;-70
2022/08/08 04:48:44;;;;;;;6.07;1.60;;;;;;;;;;5038375;28;20207;-71
2022/08/08 04:51:11;;;;;;;5.03;1.60;;;;;;;;;;5043943;28;20601;-70
2022/08/08 04:53:38;;;;;;;2.30;1.23;;;;;;;;;;5044218;28;20711;-70
2022/08/08 04:56:06;;;;;;;6.60;1.50;;;;;;;;;;5044179;28;20210;-71
2022/08/08 04:58:33;;;;;;;2.27;1.20;;;;;;;;;;5042027;28;20210;-71
2022/08/08 05:01:00;;;;;;;2.73;1.40;;;;;;;;;;5041387;28;20203;-70
2022/08/08 05:03:27;;;;;;;3.80;1.47;;;;;;;;;;5042129;28;20675;-70
2022/08/08 05:06:03;;;;;;;7.27;1.43;;;;;;;;;;5042258;28;20547;-71
2022/08/08 05:08:31;;;;;;;1.83;1.20;;;;;;;;;;5046156;28;20202;-71
2022/08/08 05:10:58;;;;;;;4.67;1.33;;;;;;;;;;5040319;28;20206;-71
2022/08/08 05:13:25;;;;;;;4.70;1.20;;;;;;;;;;5044510;28;20276;-71
2022/08/08 05:15:52;;;;;;;3.70;1.20;;;;;;;;;;5039264;28;20203;-71
2022/08/08 05:18:19;;;;;;;6.53;1.27;;;;;;;;;;5043391;28;20745;-72
2022/08/08 05:20:47;;;;;;;5.77;1.33;;;;;;;;;;5037871;28;20209;-71
2022/08/08 05:23:15;;;;;;;2.10;1.40;;;;;;;;;;5039085;28;20207;-71
2022/08/08 05:25:42;;;;;;;2.43;1.30;;;;;;;;;;5041590;28;20208;-71
2022/08/08 05:28:09;;;;;;;1.83;1.10;;;;;;;;;;5042239;28;20233;-71
2022/08/08 05:30:38;;;;;;;4.70;1.60;;;;;;;;;;5040849;28;20221;-71
2022/08/08 05:33:05;;;;;;;2.37;1.43;;;;;;;;;;5042825;28;20804;-71
2022/08/08 05:35:35;;;;;;;3.53;1.20;;;;;;;;;;5039104;28;20684;-71
2022/08/08 05:38:05;;;;;;;3.37;1.27;;;;;;;;;;5036896;28;20230;-71
2022/08/08 05:40:33;;;;;;;3.57;1.40;;;;;;;;;;5040242;28;20198;-71
2022/08/08 05:43:03;;;;;;;3.80;1.40;;;;;;;;;;5039190;28;20238;-71
2022/08/08 05:45:32;;;;;;;3.00;1.20;;;;;;;;;;5041865;28;20207;-71
2022/08/08 05:48:00;;;;;;;2.00;1.20;;;;;;;;;;5036561;28;20570;-72
2022/08/08 05:50:28;;;;;;;3.53;1.43;;;;;;;;;;5044955;28;20195;-71
2022/08/08 05:52:56;;;;;;;7.10;1.10;;;;;;;;;;5039028;28;20638;-72
2022/08/08 05:55:23;;;;;;;5.53;1.30;;;;;;;;;;5041768;28;20203;-72
2022/08/08 05:57:53;;;;;;;2.63;1.23;;;;;;;;;;5040877;28;20230;-71
2022/08/08 06:00:20;;;;;;;5.63;1.13;;;;;;;;;;5039745;28;20222;-71
2022/08/08 06:05:33;;;;;;;2.93;1.37;;;;;;;;;;5041939;28;20207;-72
2022/08/08 06:08:02;;;;;;;3.33;1.20;;;;;;;;;;5039976;28;20318;-71
2022/08/08 06:10:31;;;;;;;9.70;1.67;;;;;;;;;;5039566;28;20196;-72
2022/08/08 06:13:00;;;;;;;2.20;1.20;;;;;;;;;;5038001;28;20258;-71
2022/08/08 06:15:29;;;;;;;5.33;1.60;;;;;;;;;;5036221;28;20196;-71
2022/08/08 06:17:56;;;;;;;2.27;1.40;;;;;;;;;;5038763;28;20230;-72
2022/08/08 06:20:24;;;;;;;4.37;1.50;;;;;;;;;;5039194;28;20199;-71
2022/08/08 06:22:51;;;;;;;4.73;1.50;;;;;;;;;;5037341;28;20208;-73
2022/08/08 06:25:18;;;;;;;5.30;1.77;;;;;;;;;;5040728;28;20207;-71
2022/08/08 06:27:46;;;;;;;5.03;1.10;;;;;;;;;;5039638;28;20713;-72
2022/08/08 06:30:15;;;;;;;6.80;1.63;;;;;;;;;;5036229;28;20583;-72
2022/08/08 06:32:43;;;;;;;6.50;1.40;;;;;;;;;;5036151;28;20311;-71
2022/08/08 06:35:12;;;;;;;3.27;1.50;;;;;;;;;;5035862;28;20217;-71
2022/08/08 06:37:39;;;;;;;9.00;1.20;;;;;;;;;;5035507;28;20222;-71
2022/08/08 06:40:08;;;;;;;4.77;1.40;;;;;;;;;;5032648;28;20209;-71
2022/08/08 06:42:36;;;;;;;7.10;1.50;;;;;;;;;;5033819;28;20207;-71
2022/08/08 06:45:04;;;;;;;10.23;1.50;;;;;;;;;;5038781;28;20238;-71
2022/08/08 06:47:33;;;;;;;2.93;0.93;;;;;;;;;;5039579;28;20309;-71
2022/08/08 06:50:01;;;;;;;3.53;1.40;;;;;;;;;;5038077;28;20211;-71
2022/08/08 06:52:28;;;;;;;4.40;1.43;;;;;;;;;;5039419;28;20313;-71
2022/08/08 06:54:57;;;;;;;3.80;1.20;;;;;;;;;;5038958;28;20203;-71
2022/08/08 06:57:25;;;;;;;7.27;1.37;;;;;;;;;;5039855;28;20219;-72
2022/08/08 06:59:53;;;;;;;2.83;1.20;;;;;;;;;;5037736;28;20207;-72
2022/08/08 07:02:23;;;;;;;2.57;1.17;;;;;;;;;;5036412;28;20215;-72
2022/08/08 07:04:54;;;;;;;2.67;1.10;;;;;;;;;;5047092;28;20284;-72
2022/08/08 07:07:27;;;;;;;3.30;1.13;;;;;;;;;;5040413;28;20590;-72
2022/08/08 07:09:59;;;;;;;5.13;1.33;;;;;;;;;;5035695;28;20202;-72
2022/08/08 07:12:29;;;;;;;3.87;1.07;;;;;;;;;;5035220;28;20319;-72
2022/08/08 07:15:04;;;;;;;3.27;1.23;;;;;;;;;;5039223;28;20243;-72
2022/08/08 07:17:33;;;;;;;2.10;0.87;;;;;;;;;;5036659;28;20237;-71
2022/08/08 07:20:04;;;;;;;2.27;1.17;;;;;;;;;;5033699;28;20208;-71
2022/08/08 07:22:38;;;;;;;2.43;1.10;;;;;;;;;;5035761;28;20290;-71
2022/08/08 07:25:06;;;;;;;5.43;1.30;;;;;;;;;;5036427;28;20208;-72
2022/08/08 07:27:36;;;;;;;2.23;0.90;;;;;;;;;;5037001;28;20238;-72
2022/08/08 07:30:05;;;;;;;3.30;1.07;;;;;;;;;;5035692;28;20210;-72
2022/08/08 07:32:33;;;;;;;3.37;0.93;;;;;;;;;;5034055;28;20226;-72
2022/08/08 07:35:01;;;;;;;4.37;0.90;;;;;;;;;;5034413;28;20206;-72
2022/08/08 07:37:29;;;;;;;2.47;1.03;;;;;;;;;;5032515;28;20240;-72
2022/08/08 07:39:57;;;;;;;3.63;1.20;;;;;;;;;;5035261;28;20211;-72
2022/08/08 07:42:24;;;;;;;2.80;0.90;;;;;;;;;;5033250;28;20203;-72
2022/08/08 07:44:51;;;;;;;1.40;0.90;;;;;;;;;;5033803;28;20304;-72
2022/08/08 07:47:19;;;;;;;2.33;0.80;;;;;;;;;;5039234;28;20222;-71
2022/08/08 07:49:46;;;;;;;1.87;1.07;;;;;;;;;;5040810;28;20203;-72
2022/08/08 07:52:15;;;;;;;2.10;0.97;;;;;;;;;;5036728;28;21194;-72
2022/08/08 07:54:43;;;;;;;2.77;0.70;;;;;;;;;;5038262;28;20316;-72
2022/08/08 07:57:16;;;;;;;1.63;0.73;;;;;;;;;;5038633;28;20705;-72
2022/08/08 07:59:47;;;;;;;1.80;0.90;;;;;;;;;;5037220;28;20207;-72
2022/08/08 08:02:19;;;;;;;4.43;0.70;;;;;;;;;;5038143;28;20207;-72
2022/08/08 08:04:47;;;;;;;2.70;0.70;;;;;;;;;;5041525;28;20195;-72
2022/08/08 08:07:15;;;;;;;1.45;0.70;;;;;;;;;;5038005;28;20713;-72
2022/08/08 08:09:43;;;;;;;2.95;0.60;;;;;;;;;;5041242;28;20214;-72
2022/08/08 08:12:12;;;;;;;1.77;0.80;;;;;;;;;;5035966;28;20213;-73
2022/08/08 08:14:43;;;;;;;2.80;0.65;;;;;;;;;;5039371;28;20244;-73
2022/08/08 08:17:16;;;;;;;2.58;0.95;;;;;;;;;;5044605;28;20227;-72
2022/08/08 08:19:45;;;;;;;1.65;0.60;;;;;;;;;;5043875;28;20201;-72
2022/08/08 08:22:14;;;;;;;4.82;0.80;;;;;;;;;;5038766;28;20201;-73
2022/08/08 08:24:43;;;;;;;1.38;0.60;;;;;;;;;;5035878;28;20289;-73
2022/08/08 08:27:10;;;;;;;1.58;0.65;;;;;;;;;;5043000;28;20614;-72
2022/08/08 08:29:37;;;;;;;1.95;0.60;;;;;;;;;;5042321;28;20211;-72
2022/08/08 08:32:04;;;;;;;0.93;0.55;;;;;;;;;;5042367;28;20209;-72
2022/08/08 08:34:32;;;;;;;0.88;0.50;;;;;;;;;;5041080;28;20277;-73
2022/08/08 08:36:59;;;;;;;1.75;0.60;;;;;;;;;;5037801;28;20668;-73
2022/08/08 08:39:26;;;;;;;1.45;0.60;;;;;;;;;;5041087;28;20412;-72
2022/08/08 08:41:54;;;;;;;1.73;0.70;;;;;;;;;;5041806;28;20209;-74
2022/08/08 08:44:22;;;;;;;1.05;0.50;;;;;;;;;;5044540;28;20302;-73
2022/08/08 08:46:49;;;;;;;0.80;0.43;;;;;;;;;;5044027;28;20230;-72
2022/08/08 08:49:17;;;;;;;2.47;0.60;;;;;;;;;;5041473;28;20203;-72
2022/08/08 08:51:45;;;;;;;2.33;0.60;;;;;;;;;;5038085;28;20208;-74
2022/08/08 08:54:13;;;;;;;1.13;0.50;;;;;;;;;;5034329;28;20261;-72
2022/08/08 08:56:41;;;;;;;2.03;0.60;;;;;;;;;;5042271;28;20235;-72
2022/08/08 08:59:11;;;;;;;1.30;0.67;;;;;;;;;;5042628;28;20298;-71
2022/08/08 09:01:39;;;;;;;1.80;0.60;;;;;;;;;;5043019;28;20210;-72
2022/08/08 09:04:08;;;;;;;2.47;0.80;;;;;;;;;;5036810;28;20285;-72
2022/08/08 09:06:40;;;;;;;2.00;0.80;;;;;;;;;;5039597;28;20219;-71
2022/08/08 09:09:09;;;;;;;1.00;0.57;;;;;;;;;;5039464;28;20242;-71
2022/08/08 09:11:37;;;;;;;1.67;0.53;;;;;;;;;;5038331;28;20332;-71
2022/08/08 09:14:04;;;;;;;1.63;0.60;;;;;;;;;;5040768;28;20226;-72
2022/08/08 09:16:32;;;;;;;2.77;0.50;;;;;;;;;;5045451;28;20467;-72
2022/08/08 09:19:00;;;;;;;1.23;0.63;;;;;;;;;;5047823;28;20294;-72
2022/08/08 09:21:27;;;;;;;0.50;0.50;;;;;;;;;;5036973;28;20199;-71
2022/08/08 09:23:55;;;;;;;2.10;0.70;;;;;;;;;;5040690;28;20210;-71
2022/08/08 09:26:33;;;;;;;1.23;0.60;;;;;;;;;;5039955;28;20248;-71
2022/08/08 09:29:02;;;;;;;1.87;0.63;;;;;;;;;;5043019;28;20203;-71
2022/08/08 09:31:36;;;;;;;2.30;0.60;;;;;;;;;;5040435;28;20604;-71
2022/08/08 09:34:06;;;;;;;3.40;0.70;;;;;;;;;;5038193;28;20225;-72
2022/08/08 09:36:36;;;;;;;1.77;0.53;;;;;;;;;;5043427;28;20305;-72
2022/08/08 09:39:04;;;;;;;1.03;0.47;;;;;;;;;;5042249;28;20238;-72
2022/08/08 09:41:36;;;;;;;1.27;0.70;;;;;;;;;;5042413;28;20203;-71
2022/08/08 09:44:07;;;;;;;1.40;0.50;;;;;;;;;;5043245;28;20198;-72
2022/08/08 09:46:35;;;;;;;1.17;0.50;;;;;;;;;;5046775;28;20310;-71
2022/08/08 09:49:03;;;;;;;1.20;0.60;;;;;;;;;;5037555;28;20581;-72
2022/08/08 09:51:32;;;;;;;0.50;0.43;;;;;;;;;;5035842;28;20737;-71
2022/08/08 09:54:02;;;;;;;2.73;0.67;;;;;;;;;;5043787;28;20247;-71
2022/08/08 09:56:36;;;;;;;2.27;0.60;;;;;;;;;;5042083;28;20344;-72
2022/08/08 09:59:05;;;;;;;1.87;0.67;;;;;;;;;;5041756;28;20238;-72
2022/08/08 10:01:33;;;;;;;3.80;1.17;;;;;;;;;;5041957;28;20191;-72
2022/08/08 10:04:01;;;;;;;2.00;0.57;;;;;;;;;;5046210;28;20207;-71
2022/08/08 10:06:28;;;;;;;1.03;0.50;;;;;;;;;;5038111;28;20323;-72
2022/08/08 10:08:57;;;;;;;2.07;0.60;;;;;;;;;;5040911;28;20366;-72
2022/08/08 10:11:24;;;;;;;4.23;0.70;;;;;;;;;;5037989;28;20538;-72
2022/08/08 10:13:55;;;;;;;1.70;0.63;;;;;;;;;;5040152;28;20226;-72
2022/08/08 10:16:23;;;;;;;2.63;0.60;;;;;;;;;;5038928;28;20668;-71
2022/08/08 10:18:50;;;;;;;1.37;0.50;;;;;;;;;;5042866;28;20238;-71
2022/08/08 10:21:18;;;;;;;2.87;0.60;;;;;;;;;;5040622;28;20253;-71
2022/08/08 10:23:47;;;;;;;1.63;0.67;;;;;;;;;;5042577;28;20214;-72
2022/08/08 10:26:20;;;;;;;1.37;0.80;;;;;;;;;;5042830;28;20269;-72
2022/08/08 10:28:54;;;;;;;2.03;0.70;;;;;;;;;;5040605;28;20209;-73
2022/08/08 10:34:09;;;;;;;1.00;0.60;;;;;;;;;;5039268;28;20252;-72
2022/08/08 10:36:37;;;;;;;1.50;0.77;;;;;;;;;;5043103;28;20236;-72
2022/08/08 10:39:06;;;;;;;1.07;0.67;;;;;;;;;;5043592;28;20199;-72
2022/08/08 10:41:37;;;;;;;1.37;0.80;;;;;;;;;;5042194;28;20223;-72
2022/08/08 10:44:05;;;;;;;4.60;0.70;;;;;;;;;;5041928;28;20217;-72
2022/08/08 10:46:34;;;;;;;0.93;0.50;;;;;;;;;;5039986;28;20219;-73
2022/08/08 10:49:01;;;;;;;1.60;0.60;;;;;;;;;;5040887;28;20221;-73
2022/08/08 10:51:30;;;;;;;0.73;0.60;;;;;;;;;;5042246;28;20297;-73
2022/08/08 10:53:57;;;;;;;1.33;0.70;;;;;;;;;;5038165;28;20229;-73
2022/08/08 10:56:25;;;;;;;0.97;0.60;;;;;;;;;;5040475;28;21012;-73
2022/08/08 10:58:58;;;;;;;3.30;0.70;;;;;;;;;;5041134;28;20298;-72
2022/08/08 11:01:29;;;;;;;1.10;0.53;;;;;;;;;;5042012;28;20198;-73
2022/08/08 11:03:58;;;;;;;1.43;0.60;;;;;;;;;;5039869;28;20206;-72
2022/08/08 11:06:29;;;;;;;1.67;0.50;;;;;;;;;;5040264;28;20781;-72
2022/08/08 11:09:00;;;;;;;4.93;0.60;;;;;;;;;;5033874;28;20222;-72
2022/08/08 11:11:27;;;;;;;3.23;0.60;;;;;;;;;;5041996;28;20210;-72
2022/08/08 11:13:59;;;;;;;2.67;0.60;;;;;;;;;;5040198;28;20225;-72
2022/08/08 11:16:31;;;;;;;1.77;0.67;;;;;;;;;;5041595;28;20760;-72
2022/08/08 11:18:59;;;;;;;2.93;0.50;;;;;;;;;;5035286;28;20741;-72
2022/08/08 11:21:27;;;;;;;1.77;0.60;;;;;;;;;;5039688;28;20290;-73
2022/08/08 11:23:56;;;;;;;1.60;0.60;;;;;;;;;;5036380;28;20230;-72
2022/08/08 11:26:24;;;;;;;0.90;0.70;;;;;;;;;;5038018;28;20219;-72
2022/08/08 11:28:52;;;;;;;1.10;0.70;;;;;;;;;;5039042;28;20199;-72
2022/08/08 11:31:20;;;;;;;0.87;0.63;;;;;;;;;;5035882;28;20206;-72
2022/08/08 11:33:51;;;;;;;2.63;0.70;;;;;;;;;;5044007;28;20227;-72
2022/08/08 11:36:19;;;;;;;0.77;0.60;;;;;;;;;;5044214;28;20569;-72
2022/08/08 11:38:46;;;;;;;1.83;0.80;;;;;;;;;;5040581;28;20281;-72
2022/08/08 11:41:15;;;;;;;3.13;0.70;;;;;;;;;;5037456;28;20202;-72
2022/08/08 11:43:43;;;;;;;3.60;0.70;;;;;;;;;;5038011;28;20662;-72
2022/08/08 11:46:10;;;;;;;3.67;0.70;;;;;;;;;;5039023;28;20227;-72
2022/08/08 11:48:38;;;;;;;3.20;0.70;;;;;;;;;;5039776;28;20213;-72
2022/08/08 11:51:07;;;;;;;2.60;0.60;;;;;;;;;;5034456;28;20198;-72
2022/08/08 11:53:34;;;;;;;3.23;0.60;;;;;;;;;;5040769;28;20205;-72
2022/08/08 11:56:01;;;;;;;1.13;0.50;;;;;;;;;;5044452;28;20237;-72
2022/08/08 11:58:33;;;;;;;1.77;0.70;;;;;;;;;;5040943;28;20207;-72
2022/08/08 12:01:00;;;;;;;1.40;0.60;;;;;;;;;;5038991;28;20222;-72
2022/08/08 12:03:28;;;;;;;4.10;0.70;;;;;;;;;;5038885;28;20222;-72
2022/08/08 12:05:55;;;;;;;3.60;0.50;;;;;;;;;;5039225;28;20293;-71
2022/08/08 12:08:33;;;;;;;1.53;0.70;;;;;;;;;;5041933;28;20290;-72
2022/08/08 12:11:01;;;;;;;1.37;0.60;;;;;;;;;;5042541;28;20261;-72
2022/08/08 12:13:28;;;;;;;0.70;0.50;;;;;;;;;;5037839;28;20304;-72
2022/08/08 12:16:06;;;;;;;2.23;0.60;;;;;;;;;;5040864;28;20641;-72
2022/08/08 12:18:43;;;;;;;2.20;0.70;;;;;;;;;;5042787;28;20584;-72
2022/08/08 12:21:19;;;;;;;3.63;0.73;;;;;;;;;;5041507;28;20209;-71
2022/08/08 12:23:48;;;;;;;1.03;0.50;;;;;;;;;;5040659;28;20218;-73
2022/08/08 12:26:18;;;;;;;1.80;0.77;;;;;;;;;;5040230;28;20324;-73
2022/08/08 12:28:54;;;;;;;0.97;0.43;;;;;;;;;;5040033;28;20298;-72
2022/08/08 12:31:30;;;;;;;2.70;0.70;;;;;;;;;;5040585;28;20669;-72
2022/08/08 12:33:57;;;;;;;0.87;0.40;;;;;;;;;;5042497;28;20207;-72
2022/08/08 12:36:24;;;;;;;3.27;0.60;;;;;;;;;;5046206;28;20757;-73
2022/08/08 12:38:53;;;;;;;1.80;0.60;;;;;;;;;;5044156;28;20203;-73
2022/08/08 12:41:21;;;;;;;1.10;0.60;;;;;;;;;;5044677;28;20286;-72
2022/08/08 12:43:51;;;;;;;1.30;0.80;;;;;;;;;;5044441;28;20195;-72
2022/08/08 12:46:21;;;;;;;1.87;0.60;;;;;;;;;;5044970;28;20223;-72
2022/08/08 12:48:53;;;;;;;2.27;0.70;;;;;;;;;;5043579;28;20202;-71
2022/08/08 12:51:21;;;;;;;2.47;0.70;;;;;;;;;;5042892;28;20211;-73
2022/08/08 12:53:57;;;;;;;1.43;0.67;;;;;;;;;;5043239;28;20689;-72
2022/08/08 12:56:32;;;;;;;1.50;0.70;;;;;;;;;;5045543;28;20229;-71
2022/08/08 12:59:00;;;;;;;1.13;0.60;;;;;;;;;;5041806;28;20588;-72
2022/08/08 13:01:35;;;;;;;2.40;0.60;;;;;;;;;;5040295;28;20739;-72
2022/08/08 13:04:12;;;;;;;2.23;0.80;;;;;;;;;;5040735;28;20202;-72
2022/08/08 13:06:40;;;;;;;1.77;0.70;;;;;;;;;;5040807;28;20238;-72
2022/08/08 13:09:09;;;;;;;0.73;0.60;;;;;;;;;;5042546;28;20206;-72
2022/08/08 13:11:37;;;;;;;2.50;0.60;;;;;;;;;;5044192;28;20206;-72
2022/08/08 13:14:09;;;;;;;2.23;0.50;;;;;;;;;;5044644;28;20203;-72
2022/08/08 13:16:37;;;;;;;3.03;0.50;;;;;;;;;;5038594;28;20227;-72
2022/08/08 13:19:06;;;;;;;0.80;0.53;;;;;;;;;;5037427;28;20202;-72
2022/08/08 13:21:34;;;;;;;1.83;0.60;;;;;;;;;;5040194;28;20285;-72
2022/08/08 13:24:01;;;;;;;0.60;0.50;;;;;;;;;;5035981;28;20211;-72
2022/08/08 13:26:33;;;;;;;2.97;0.70;;;;;;;;;;5046131;28;20318;-72
2022/08/08 13:29:00;;;;;;;1.50;0.80;;;;;;;;;;5041664;28;20790;-72
2022/08/08 13:31:27;;;;;;;1.13;0.60;;;;;;;;;;5040584;28;20633;-72
2022/08/08 13:33:54;;;;;;;1.00;0.60;;;;;;;;;;5039058;28;20650;-72
2022/08/08 13:36:21;;;;;;;5.93;0.90;;;;;;;;;;5045291;28;20233;-72
2022/08/08 13:38:49;;;;;;;1.10;0.70;;;;;;;;;;5046204;28;20557;-73
2022/08/08 13:41:16;;;;;;;1.40;0.73;;;;;;;;;;5043042;28;20780;-73
2022/08/08 13:43:45;;;;;;;1.27;0.70;;;;;;;;;;5047079;28;20675;-72
2022/08/08 13:46:14;;;;;;;1.90;0.60;;;;;;;;;;5045234;28;20333;-73
2022/08/08 13:48:45;;;;;;;0.97;0.60;;;;;;;;;;5043460;28;20215;-73
2022/08/08 13:51:13;;;;;;;1.60;0.60;;;;;;;;;;5045058;28;20238;-72
2022/08/08 13:53:40;;;;;;;1.03;0.60;;;;;;;;;;5045171;28;20262;-72
2022/08/08 13:56:08;;;;;;;1.33;0.77;;;;;;;;;;5044808;28;20340;-72
2022/08/08 13:58:36;;;;;;;0.90;0.60;;;;;;;;;;5044330;28;20278;-72
2022/08/08 14:01:15;;;;;;;1.77;0.70;;;;;;;;;;5047225;28;20203;-72
2022/08/08 14:03:51;;;;;;;3.00;0.87;;;;;;;;;;5041759;28;20237;-72
2022/08/08 14:06:18;;;;;;;4.10;0.80;;;;;;;;;;5042468;28;20223;-72
2022/08/08 14:08:47;;;;;;;3.57;0.70;;;;;;;;;;5040776;28;20206;-72
2022/08/08 14:11:14;;;;;;;1.47;0.70;;;;;;;;;;5042005;28;20204;-72
2022/08/08 14:13:42;;;;;;;2.37;0.73;;;;;;;;;;5040952;28;20308;-71
2022/08/08 14:16:09;;;;;;;1.97;0.67;;;;;;;;;;5041416;28;20233;-72
2022/08/08 14:18:38;;;;;;;0.67;0.43;;;;;;;;;;5042808;28;20195;-72
2022/08/08 14:21:08;;;;;;;1.20;0.60;;;;;;;;;;5043724;28;20336;-72
2022/08/08 14:23:42;;;;;;;0.93;0.73;;;;;;;;;;5044656;28;20681;-72
2022/08/08 14:26:20;;;;;;;2.10;0.70;;;;;;;;;;5043361;28;20226;-71
2022/08/08 14:28:50;;;;;;;2.90;0.63;;;;;;;;;;5044380;28;20211;-72
2022/08/08 14:31:18;;;;;;;0.70;0.47;;;;;;;;;;5043565;28;20199;-72
2022/08/08 14:33:50;;;;;;;2.00;0.70;;;;;;;;;;5043259;28;20301;-71
2022/08/08 14:36:18;;;;;;;0.87;0.63;;;;;;;;;;5041722;28;20310;-72
2022/08/08 14:38:45;;;;;;;0.90;0.60;;;;;;;;;;5042837;28;20203;-72
2022/08/08 14:41:12;;;;;;;1.33;0.70;;;;;;;;;;5043610;28;20431;-72
2022/08/08 14:43:46;;;;;;;1.43;0.60;;;;;;;;;;5045597;28;20286;-72
2022/08/08 14:46:15;;;;;;;1.77;0.70;;;;;;;;;;5044277;28;20219;-72
2022/08/08 14:48:47;;;;;;;0.50;0.50;;;;;;;;;;5044145;28;20203;-72
2022/08/08 14:51:14;;;;;;;1.00;0.70;;;;;;;;;;5043445;28;20297;-72
2022/08/08 14:53:44;;;;;;;0.97;0.60;;;;;;;;;;5041430;28;20583;-72
2022/08/08 14:56:11;;;;;;;2.73;0.63;;;;;;;;;;5042168;28;20229;-72
2022/08/08 14:58:39;;;;;;;4.13;0.70;;;;;;;;;;5044848;28;20732;-72
2022/08/08 15:01:07;;;;;;;1.23;0.70;;;;;;;;;;5045544;28;20198;-72
2022/08/08 15:03:34;;;;;;;0.77;0.60;;;;;;;;;;5040311;28;20198;-72
2022/08/08 15:06:02;;;;;;;1.90;0.70;;;;;;;;;;5044446;28;20199;-72
2022/08/08 15:08:30;;;;;;;1.50;0.60;;;;;;;;;;5041388;28;20250;-72
2022/08/08 15:10:58;;;;;;;1.60;0.70;;;;;;;;;;5039547;28;20204;-72
2022/08/08 15:13:25;;;;;;;2.70;0.60;;;;;;;;;;5038154;28;20206;-73